createdAt,value
2018-03-22T00:00:55.631Z,95197.59
2018-03-22T00:03:23.982Z,95202.12
2018-03-22T00:05:52.392Z,95204.45
2018-03-22T00:08:20.737Z,95199.07
2018-03-22T00:10:49.179Z,95202.39
2018-03-22T00:13:17.528Z,95213.61
2018-03-22T00:15:45.856Z,95207.34
2018-03-22T00:18:14.198Z,95204.96
2018-03-22T00:20:42.536Z,95193.38
2018-03-22T00:23:10.877Z,95197.41
2018-03-22T00:25:39.224Z,95198.11
2018-03-22T00:28:07.580Z,95188.88
2018-03-22T00:30:35.936Z,95188.31
2018-03-22T00:35:56.078Z,95182.62
2018-03-22T00:38:24.409Z,95188.05
2018-03-22T00:40:52.564Z,95196.06
2018-03-22T00:43:20.919Z,95190.25
2018-03-22T00:45:49.251Z,95181.27
2018-03-22T00:48:17.608Z,95177.37
2018-03-22T00:50:45.946Z,95168.87
2018-03-22T00:53:14.271Z,95161.91
2018-03-22T00:55:42.612Z,95167.81
2018-03-22T00:58:10.956Z,95164.73
2018-03-22T01:00:39.297Z,95150.52
2018-03-22T01:03:07.636Z,95146.81
2018-03-22T01:05:36.012Z,95152.78
2018-03-22T01:08:04.335Z,95151.38
2018-03-22T01:10:32.681Z,95144.06
2018-03-22T01:13:01.014Z,95153.50
2018-03-22T01:15:29.334Z,95148.42
2018-03-22T01:17:57.672Z,95154.48
2018-03-22T01:20:26.024Z,95148.50
2018-03-22T01:22:54.357Z,95154.23
2018-03-22T01:25:22.687Z,95159.81
2018-03-22T01:27:51.016Z,95153.77
2018-03-22T01:30:30.577Z,95142.36
2018-03-22T01:32:58.909Z,95143.61
2018-03-22T01:35:27.255Z,95143.89
2018-03-22T01:37:55.585Z,95147.47
2018-03-22T01:40:23.757Z,95139.33
2018-03-22T01:42:52.086Z,95134.74
2018-03-22T01:45:20.427Z,95142.93
2018-03-22T01:47:48.841Z,95139.50
2018-03-22T01:50:17.163Z,95144.98
2018-03-22T01:52:56.743Z,95139.69
2018-03-22T01:55:25.062Z,95140.44
2018-03-22T01:57:53.257Z,95154.48
2018-03-22T02:00:21.599Z,95139.02
2018-03-22T02:02:49.927Z,95141.77
2018-03-22T02:05:18.303Z,95149.84
2018-03-22T02:07:46.644Z,95151.30
2018-03-22T02:10:15.005Z,95154.53
2018-03-22T02:12:43.349Z,95146.63
2018-03-22T02:15:11.503Z,95144.11
2018-03-22T02:17:39.856Z,95144.64
2018-03-22T02:20:08.187Z,95140.66
2018-03-22T02:22:36.527Z,95133.44
2018-03-22T02:25:04.658Z,95131.81
2018-03-22T02:27:32.998Z,95124.50
2018-03-22T02:30:01.503Z,95121.04
2018-03-22T02:32:29.845Z,95118.90
2018-03-22T02:34:58.181Z,95115.90
2018-03-22T02:37:26.538Z,95103.45
2018-03-22T02:39:54.876Z,95126.38
2018-03-22T02:42:23.221Z,95111.92
2018-03-22T02:44:51.539Z,95110.83
2018-03-22T02:47:19.875Z,95107.66
2018-03-22T02:49:48.202Z,95101.23
2018-03-22T02:52:16.547Z,95102.14
2018-03-22T02:54:44.902Z,95102.67
2018-03-22T02:57:13.231Z,95093.02
2018-03-22T02:59:41.577Z,95091.84
2018-03-22T03:02:09.914Z,95086.75
2018-03-22T03:04:38.241Z,95073.59
2018-03-22T03:07:06.597Z,95076.52
2018-03-22T03:09:34.924Z,95077.28
2018-03-22T03:12:03.274Z,95070.49
2018-03-22T03:14:31.636Z,95063.53
2018-03-22T03:16:59.986Z,95061.05
2018-03-22T03:19:28.319Z,95063.88
2018-03-22T03:21:56.672Z,95062.42
2018-03-22T03:24:25.018Z,95053.92
2018-03-22T03:26:53.335Z,95053.67
2018-03-22T03:29:21.680Z,95043.62
2018-03-22T03:31:50.016Z,95048.48
2018-03-22T03:34:18.359Z,95044.08
2018-03-22T03:36:46.838Z,95041.33
2018-03-22T03:39:15.159Z,95026.31
2018-03-22T03:41:43.512Z,95034.15
2018-03-22T03:44:11.846Z,95043.08
2018-03-22T03:46:40.192Z,95042.86
2018-03-22T03:49:08.568Z,95036.31
2018-03-22T03:51:36.898Z,95029.34
2018-03-22T03:54:05.251Z,95022.66
2018-03-22T03:56:33.578Z,95029.46
2018-03-22T03:59:01.987Z,95035.60
2018-03-22T04:01:30.358Z,95013.06
2018-03-22T04:03:58.498Z,94999.09
2018-03-22T04:06:26.854Z,95022.33
2018-03-22T04:08:55.198Z,95033.56
2018-03-22T04:11:23.555Z,95035.44
2018-03-22T04:13:52.199Z,95034.67
2018-03-22T04:16:20.543Z,95024.41
2018-03-22T04:18:48.875Z,95020.38
2018-03-22T04:21:17.216Z,95032.19
2018-03-22T04:23:45.590Z,95035.53
2018-03-22T04:26:13.953Z,95030.08
2018-03-22T04:31:25.107Z,95030.13
2018-03-22T04:33:53.457Z,95028.92
2018-03-22T04:36:21.801Z,95023.95
2018-03-22T04:38:50.154Z,95022.30
2018-03-22T04:41:18.511Z,95022.20
2018-03-22T04:43:46.873Z,95014.24
2018-03-22T04:46:15.269Z,95008.80
2018-03-22T04:48:43.601Z,95014.13
2018-03-22T04:51:11.947Z,95027.59
2018-03-22T04:53:40.074Z,95030.73
2018-03-22T04:56:08.426Z,95030.98
2018-03-22T04:58:36.811Z,95024.58
2018-03-22T05:01:05.291Z,95021.13
2018-03-22T05:03:33.816Z,95015.45
2018-03-22T05:06:02.184Z,95007.66
2018-03-22T05:08:30.511Z,95005.15
2018-03-22T05:10:58.897Z,95011.63
2018-03-22T05:13:27.067Z,94995.72
2018-03-22T05:15:55.404Z,94996.95
2018-03-22T05:18:23.729Z,95008.87
2018-03-22T05:20:52.062Z,95015.44
2018-03-22T05:23:20.409Z,95006.92
2018-03-22T05:25:48.746Z,94999.91
2018-03-22T05:28:17.093Z,95002.58
2018-03-22T05:30:45.420Z,94991.20
2018-03-22T05:33:13.811Z,94984.70
2018-03-22T05:35:42.161Z,94989.34
2018-03-22T05:38:10.298Z,94988.59
2018-03-22T05:40:38.452Z,94988.22
2018-03-22T05:43:06.825Z,94987.75
2018-03-22T05:45:35.169Z,94984.81
2018-03-22T05:48:03.946Z,94985.11
2018-03-22T05:50:32.669Z,94988.23
2018-03-22T05:53:00.996Z,94986.42
2018-03-22T05:55:30.152Z,94970.62
2018-03-22T05:58:00.136Z,94964.70
2018-03-22T06:00:28.481Z,94969.80
2018-03-22T06:02:56.623Z,94972.98
2018-03-22T06:05:24.949Z,94976.19
2018-03-22T06:07:53.308Z,94981.62
2018-03-22T06:10:21.662Z,94978.41
2018-03-22T06:12:50.006Z,94971.36
2018-03-22T06:15:18.367Z,94978.73
2018-03-22T06:17:46.738Z,94982.14
2018-03-22T06:20:15.090Z,94982.89
2018-03-22T06:22:43.418Z,94989.69
2018-03-22T06:25:11.759Z,94995.59
2018-03-22T06:27:40.108Z,94996.48
2018-03-22T06:30:08.457Z,95008.30
2018-03-22T06:32:36.806Z,95014.75
2018-03-22T06:35:04.983Z,95005.31
2018-03-22T06:37:33.318Z,94994.59
2018-03-22T06:40:01.678Z,94989.50
2018-03-22T06:42:41.203Z,94993.08
2018-03-22T06:45:09.542Z,94973.14
2018-03-22T06:47:37.679Z,94959.53
2018-03-22T06:50:06.021Z,94966.55
2018-03-22T06:52:34.336Z,94949.13
2018-03-22T06:55:02.671Z,94929.40
2018-03-22T06:57:31.031Z,94952.89
2018-03-22T06:59:59.410Z,94975.42
2018-03-22T07:02:27.723Z,94979.36
2018-03-22T07:04:56.078Z,94969.95
2018-03-22T07:07:24.440Z,94980.06
2018-03-22T07:09:52.786Z,94971.67
2018-03-22T07:12:21.115Z,94962.11
2018-03-22T07:14:49.494Z,94960.62
2018-03-22T07:17:17.848Z,94963.93
2018-03-22T07:19:46.228Z,94959.24
2018-03-22T07:22:14.751Z,94951.30
2018-03-22T07:24:43.090Z,94952.27
2018-03-22T07:27:11.476Z,94953.20
2018-03-22T07:29:39.812Z,94938.62
2018-03-22T07:32:08.150Z,94913.45
2018-03-22T07:34:36.475Z,94915.08
2018-03-22T07:37:04.812Z,94906.66
2018-03-22T07:39:33.152Z,94908.77
2018-03-22T07:42:01.504Z,94901.59
2018-03-22T07:44:35.220Z,94900.08
2018-03-22T07:47:03.570Z,94895.73
2018-03-22T07:49:31.905Z,94899.15
2018-03-22T07:52:00.237Z,94901.51
2018-03-22T07:54:29.042Z,94904.37
2018-03-22T07:56:58.536Z,94900.48
2018-03-22T07:59:26.945Z,94902.24
2018-03-22T08:01:55.269Z,94893.27
2018-03-22T08:04:24.467Z,94892.51
2018-03-22T08:06:52.791Z,94880.54
2018-03-22T08:09:21.119Z,94879.79
2018-03-22T08:11:49.435Z,94873.34
2018-03-22T08:14:17.765Z,94860.91
2018-03-22T08:16:46.083Z,94861.95
2018-03-22T08:19:14.419Z,94857.50
2018-03-22T08:21:42.749Z,94855.68
2018-03-22T08:24:11.089Z,94861.19
2018-03-22T08:26:39.443Z,94849.16
2018-03-22T08:29:07.808Z,94851.58
2018-03-22T08:31:36.190Z,94846.21
2018-03-22T08:34:04.670Z,94844.81
2018-03-22T08:36:33.031Z,94840.81
2018-03-22T08:39:01.368Z,94839.11
2018-03-22T08:41:29.993Z,94831.91
2018-03-22T08:43:58.311Z,94815.51
2018-03-22T08:46:26.674Z,94822.84
2018-03-22T08:48:55.048Z,94819.92
2018-03-22T08:51:23.395Z,94823.28
2018-03-22T08:53:51.736Z,94819.48
2018-03-22T08:56:20.187Z,94815.58
2018-03-22T08:58:48.510Z,94804.94
2018-03-22T09:01:16.855Z,94811.69
2018-03-22T09:03:45.205Z,94808.27
2018-03-22T09:06:13.632Z,94804.50
2018-03-22T09:08:41.970Z,94796.69
2018-03-22T09:11:10.322Z,94789.13
2018-03-22T09:13:38.653Z,94787.63
2018-03-22T09:16:07.004Z,94778.72
2018-03-22T09:18:35.331Z,94780.39
2018-03-22T09:21:03.687Z,94773.82
2018-03-22T09:23:32.050Z,94765.55
2018-03-22T09:26:00.387Z,94765.79
2018-03-22T09:28:28.862Z,94770.43
2018-03-22T09:30:57.212Z,94758.81
2018-03-22T09:33:25.892Z,94751.18
2018-03-22T09:35:54.327Z,94740.05
2018-03-22T09:38:22.707Z,94742.53
2018-03-22T09:40:51.140Z,94737.05
2018-03-22T09:43:19.663Z,94727.25
2018-03-22T09:45:48.202Z,94719.81
2018-03-22T09:48:16.599Z,94713.34
2018-03-22T09:50:44.978Z,94712.52
2018-03-22T09:53:13.351Z,94709.91
2018-03-22T09:55:41.810Z,94704.63
2018-03-22T09:58:10.227Z,94708.66
2018-03-22T10:00:38.653Z,94706.06
2018-03-22T10:03:07.047Z,94701.94
2018-03-22T10:05:35.434Z,94697.28
2018-03-22T10:08:03.824Z,94696.03
2018-03-22T10:10:32.163Z,94690.41
2018-03-22T10:13:00.525Z,94698.64
2018-03-22T10:15:28.847Z,94702.52
2018-03-22T10:17:57.203Z,94697.70
2018-03-22T10:22:52.927Z,94695.38
2018-03-22T10:25:21.289Z,94694.68
2018-03-22T10:27:49.619Z,94689.95
2018-03-22T10:30:18.016Z,94689.44
2018-03-22T10:32:46.384Z,94687.34
2018-03-22T10:35:14.778Z,94679.95
2018-03-22T10:37:43.141Z,94672.38
2018-03-22T10:40:11.467Z,94676.00
2018-03-22T10:42:39.805Z,94677.05
2018-03-22T10:45:08.122Z,94673.90
2018-03-22T10:47:36.461Z,94682.06
2018-03-22T10:50:04.795Z,94676.56
2018-03-22T10:52:33.131Z,94677.52
2018-03-22T10:55:01.716Z,94666.39
2018-03-22T10:57:30.350Z,94665.34
2018-03-22T10:59:58.682Z,94649.62
2018-03-22T11:02:32.443Z,94648.58
2018-03-22T11:05:00.800Z,94650.08
2018-03-22T11:07:29.143Z,94649.67
2018-03-22T11:09:57.347Z,94647.40
2018-03-22T11:12:25.684Z,94656.91
2018-03-22T11:14:54.052Z,94644.05
2018-03-22T11:17:22.391Z,94645.34
2018-03-22T11:19:50.714Z,94638.82
2018-03-22T11:22:19.255Z,94646.86
2018-03-22T11:24:47.614Z,94629.72
2018-03-22T11:27:15.965Z,94628.43
2018-03-22T11:29:44.317Z,94621.91
2018-03-22T11:32:12.654Z,94625.70
2018-03-22T11:34:40.982Z,94631.35
2018-03-22T11:37:09.335Z,94622.39
2018-03-22T11:39:37.654Z,94619.45
2018-03-22T11:42:05.995Z,94611.46
2018-03-22T11:44:34.334Z,94623.08
2018-03-22T11:47:02.668Z,94615.80
2018-03-22T11:49:31.025Z,94593.25
2018-03-22T11:51:59.350Z,94587.61
2018-03-22T11:54:27.675Z,94587.06
2018-03-22T11:56:55.999Z,94585.15
2018-03-22T11:59:24.444Z,94569.20
2018-03-22T12:01:52.839Z,94559.22
2018-03-22T12:04:21.363Z,94559.89
2018-03-22T12:06:49.876Z,94564.19
2018-03-22T12:09:18.247Z,94559.23
2018-03-22T12:11:46.613Z,94568.73
2018-03-22T12:14:14.988Z,94552.24
2018-03-22T12:16:43.344Z,94546.20
2018-03-22T12:19:11.702Z,94556.25
2018-03-22T12:21:40.131Z,94563.16
2018-03-22T12:26:42.491Z,94572.93
2018-03-22T12:29:10.919Z,94574.70
2018-03-22T12:31:39.283Z,94579.65
2018-03-22T12:34:07.653Z,94578.59
2018-03-22T12:36:36.054Z,94571.45
2018-03-22T12:39:04.002Z,94559.98
2018-03-22T12:41:32.331Z,94549.59
2018-03-22T12:44:00.662Z,94531.98
2018-03-22T12:46:29.027Z,94545.70
2018-03-22T12:51:39.976Z,94530.35
2018-03-22T12:54:08.622Z,94513.86
2018-03-22T12:56:37.007Z,94515.64
2018-03-22T12:59:05.346Z,94507.48
2018-03-22T13:01:33.698Z,94513.22
2018-03-22T13:04:02.040Z,94489.84
2018-03-22T13:06:30.372Z,94489.19
2018-03-22T13:08:58.709Z,94494.09
2018-03-22T13:11:27.099Z,94495.92
2018-03-22T13:13:55.658Z,94478.98
2018-03-22T13:16:24.010Z,94483.72
2018-03-22T13:18:52.346Z,94501.22
2018-03-22T13:21:20.671Z,94506.63
2018-03-22T13:23:49.048Z,94496.78
2018-03-22T13:26:17.380Z,94498.67
2018-03-22T13:28:45.705Z,94482.42
2018-03-22T13:31:14.023Z,94478.14
2018-03-22T13:33:42.398Z,94472.27
2018-03-22T13:36:10.759Z,94469.69
2018-03-22T13:38:39.114Z,94469.89
2018-03-22T13:41:07.492Z,94455.45
2018-03-22T13:43:35.852Z,94436.92
2018-03-22T13:46:04.337Z,94436.72
2018-03-22T13:48:32.671Z,94428.72
2018-03-22T13:51:00.986Z,94403.54
2018-03-22T13:53:29.435Z,94405.91
2018-03-22T13:55:57.776Z,94411.94
2018-03-22T13:58:26.105Z,94416.71
2018-03-22T14:00:54.466Z,94408.46
2018-03-22T14:03:22.798Z,94398.55
2018-03-22T14:05:51.120Z,94393.74
2018-03-22T14:08:19.485Z,94389.73
2018-03-22T14:10:47.835Z,94391.32
2018-03-22T14:13:16.164Z,94391.45
2018-03-22T14:15:44.606Z,94386.27
2018-03-22T14:18:13.034Z,94376.03
2018-03-22T14:20:41.374Z,94385.23
2018-03-22T14:23:09.708Z,94391.47
2018-03-22T14:25:38.210Z,94383.20
2018-03-22T14:28:06.614Z,94380.08
2018-03-22T14:30:41.988Z,94393.09
2018-03-22T14:33:10.343Z,94387.81
2018-03-22T14:35:38.675Z,94394.58
2018-03-22T14:38:07.098Z,94385.86
2018-03-22T14:40:35.564Z,94380.63
2018-03-22T14:43:04.040Z,94359.25
2018-03-22T14:45:32.396Z,94358.09
2018-03-22T14:48:00.728Z,94350.44
2018-03-22T14:50:29.172Z,94348.67
2018-03-22T14:52:57.504Z,94341.50
2018-03-22T14:55:25.893Z,94382.52
2018-03-22T14:57:54.220Z,94385.23
2018-03-22T15:00:22.618Z,94384.28
2018-03-22T15:02:50.955Z,94373.23
2018-03-22T15:05:19.311Z,94374.44
2018-03-22T15:07:47.631Z,94367.48
2018-03-22T15:10:15.990Z,94361.78
2018-03-22T15:12:44.350Z,94361.62
2018-03-22T15:15:12.691Z,94366.58
2018-03-22T15:17:41.025Z,94370.52
2018-03-22T15:20:09.357Z,94361.92
2018-03-22T15:22:37.733Z,94356.61
2018-03-22T15:25:06.080Z,94353.58
2018-03-22T15:27:34.577Z,94355.17
2018-03-22T15:30:02.907Z,94351.06
2018-03-22T15:32:31.247Z,94354.03
2018-03-22T15:34:59.594Z,94349.38
2018-03-22T15:37:27.971Z,94340.60
2018-03-22T15:39:56.477Z,94331.34
2018-03-22T15:42:25.015Z,94317.34
2018-03-22T15:44:53.683Z,94311.80
2018-03-22T15:47:22.002Z,94306.13
2018-03-22T15:49:50.318Z,94306.05
2018-03-22T15:52:18.643Z,94326.78
2018-03-22T15:54:47.048Z,94328.20
2018-03-22T15:57:15.439Z,94312.92
2018-03-22T15:59:43.839Z,94307.48
2018-03-22T16:02:12.325Z,94318.01
2018-03-22T16:04:40.656Z,94298.95
2018-03-22T16:07:08.980Z,94303.50
2018-03-22T16:09:37.323Z,94303.09
2018-03-22T16:12:05.669Z,94294.84
2018-03-22T16:14:34.006Z,94289.18
2018-03-22T16:17:02.337Z,94291.98
2018-03-22T16:19:30.708Z,94287.02
2018-03-22T16:21:59.221Z,94285.99
2018-03-22T16:24:27.562Z,94272.38
2018-03-22T16:26:55.920Z,94280.11
2018-03-22T16:29:24.287Z,94272.44
2018-03-22T16:31:52.626Z,94266.83
2018-03-22T16:34:20.949Z,94279.75
2018-03-22T16:36:49.307Z,94289.98
2018-03-22T16:39:17.853Z,94275.63
2018-03-22T16:41:46.244Z,94275.52
2018-03-22T16:44:14.565Z,94289.74
2018-03-22T16:46:42.899Z,94296.67
2018-03-22T16:49:11.423Z,94273.21
2018-03-22T16:51:40.293Z,94281.94
2018-03-22T17:26:06.015Z,94171.57
2018-03-22T17:28:34.589Z,94190.60
2018-03-22T17:31:17.242Z,94209.03
2018-03-22T17:33:45.589Z,94185.54
2018-03-22T17:39:02.407Z,94189.56
2018-03-22T17:41:30.757Z,94168.68
